Flight Track Log - Related Links

Times and Time Zones

All times are in EDT time to prevent confusion due to time zone crossing. See the UAL692 flight status page for this flight to view local times or setup timezone preferences in your user account.

Time Position Orientation Groundspeed Altitude Reporting Facility
EDT Latitude Longitude Course Direction KTS MPH feet Rate Location/Type
Fri 08:15:39 AM 29.9617 -95.3436 30° Northeast 148 170 600  Level Houston Center
Fri 08:16:40 AM 29.9506 -95.3836 252° West 213 245 2,200 1,630 Climbing Houston Center
Fri 08:17:11 AM 29.9778 -95.3872 353° North 226 260 3,100 2,387 Climbing Houston Center
Fri 08:18:00 AM 30.2515 -95.1075 28° Northeast  Level FlightAware
Fri 08:18:13 AM 30.0356 -95.3422 34° Northeast 255 293 5,900  Level Houston Center
Fri 08:19:00 AM 30.3472 -95.0423 35° Northeast  Level FlightAware
Fri 08:19:14 AM 30.0964 -95.2867 38° Northeast 273 314 9,600  Level Houston Center
Fri 08:20:00 AM 30.4356 -94.9644 41° Northeast  Level FlightAware
Fri 08:20:16 AM 30.1589 -95.2311 38° Northeast 279 321 11,700  Level Houston Center
Fri 08:21:00 AM 30.5299 -94.8968 30° Northeast  Level FlightAware
Fri 08:21:17 AM 30.2489 -95.1486 38° Northeast 335 386 14,600  Level Houston Center
Fri 08:22:18 AM 30.3256 -95.0794 38° Northeast 345 397 17,000 2,098 Climbing Houston Center
Fri 08:23:20 AM 30.4061 -95.0056 38° Northeast 360 414 18,900 1,902 Climbing Houston Center
Fri 08:24:21 AM 30.4911 -94.9383 34° Northeast 364 419 20,900 1,805 Climbing Houston Center
Fri 08:25:23 AM 30.5825 -94.8689 33° Northeast 384 442 22,600 1,561 Climbing Houston Center
Fri 08:26:24 AM 30.6764 -94.7972 33° Northeast 398 458 24,100 1,561 Climbing Houston Center
Fri 08:27:26 AM 30.7706 -94.7242 34° Northeast 405 466 25,800 1,512 Climbing Houston Center
Fri 08:28:27 AM 30.8672 -94.6497 33° Northeast 414 476 27,200 1,610 Climbing Houston Center
Fri 08:29:29 AM 30.9844 -94.5586 34° Northeast 423 487 29,100 1,512 Climbing Houston Center
Fri 08:30:30 AM 31.0811 -94.4831 34° Northeast 423 487 30,300 1,122 Climbing Houston Center
Fri 08:31:32 AM 31.1814 -94.4064 33° Northeast 434 499 31,400 1,415 Climbing Houston Center
Fri 08:32:33 AM 31.2833 -94.3269 34° Northeast 442 509 33,200 1,475 Climbing Houston Center
Fri 08:33:34 AM 31.3803 -94.2506 34° Northeast 430 495 34,400 878 Climbing Houston Center
Fri 08:34:36 AM 31.4775 -94.1747 34° Northeast 426 490 35,000 293 Climbing Houston Center
Fri 08:35:37 AM 31.5931 -94.0858 33° Northeast 417 480 35,000 244 Level Houston Center
Fri 08:36:39 AM 31.6889 -94.0097 34° Northeast 418 481 35,500 683 Climbing Houston Center
Fri 08:37:40 AM 31.7839 -93.9347 34° Northeast 414 476 36,400 732 Climbing Houston Center
Fri 08:38:42 AM 31.8806 -93.8586 34° Northeast 411 473 37,000 293 Climbing Houston Center
Fri 08:39:43 AM 31.9747 -93.7825 34° Northeast 410 472 37,000  Level Houston Center
Fri 08:40:45 AM 32.0675 -93.7100 34° Northeast 410 472 37,000  Level Houston Center
Fri 08:41:24 AM 32.1283 -93.6625 33° Northeast 410 472 37,000  Level Fort Center
Fri 08:42:24 AM 32.2319 -93.5700 37° Northeast 421 484 37,000  Level Fort Center
Fri 08:43:24 AM 32.3258 -93.4972 33° Northeast 416 479 37,000  Level Fort Center
Fri 08:44:24 AM 32.4214 -93.4217 34° Northeast 416 479 37,000  Level Fort Center
Fri 08:45:24 AM 32.4967 -93.3567 36° Northeast 411 473 37,000 -50 Level Fort Center
Fri 08:46:24 AM 32.6086 -93.2678 34° Northeast 411 473 36,900 -200 Descending Fort Center
Fri 08:47:24 AM 32.7061 -93.1919 33° Northeast 410 472 36,600 50 Descending Fort Center
Fri 08:48:24 AM 32.8058 -93.1106 34° Northeast 424 488 37,000 200 Climbing Fort Center
Fri 08:49:24 AM 32.9053 -93.0292 34° Northeast 430 495 37,000  Level Fort Center
Fri 08:51:14 AM 33.0850 -92.8836 34° Northeast 439 505 37,000  Level Memphis Center
Fri 08:52:14 AM 33.1847 -92.8022 34° Northeast 434 499 37,000  Level Memphis Center
Fri 08:53:14 AM 33.2761 -92.7103 40° Northeast 429 494 37,000 -50 Level Memphis Center
Fri 08:54:14 AM 33.3533 -92.6031 49° Northeast 424 488 36,900 -50 Descending Memphis Center
Fri 08:55:14 AM 33.4242 -92.4903 53° Northeast 424 488 36,900 50 Level Memphis Center
Fri 08:56:14 AM 33.4947 -92.3800 52° Northeast 418 481 37,000  Climbing Memphis Center
Fri 08:57:14 AM 33.5675 -92.2694 52° Northeast 418 481 36,900  Descending Memphis Center
Fri 08:58:14 AM 33.6422 -92.1611 50° Northeast 418 481 37,000 50 Climbing Memphis Center
Fri 08:59:14 AM 33.7147 -92.0478 52° Northeast 418 481 37,000  Level Memphis Center
Fri 09:00:14 AM 33.7892 -91.9344 52° Northeast 418 481 37,000  Level Memphis Center
Fri 09:01:14 AM 33.8617 -91.8206 53° Northeast 423 487 37,000  Level Memphis Center
Fri 09:02:14 AM 33.9317 -91.7092 53° Northeast 423 487 37,000  Level Memphis Center
Fri 09:03:14 AM 34.0081 -91.5950 51° Northeast 423 487 37,000  Level Memphis Center
Fri 09:04:14 AM 34.0781 -91.4806 54° Northeast 428 493 37,000 -50 Level Memphis Center
Fri 09:05:14 AM 34.1500 -91.3686 52° Northeast 428 493 36,900 -50 Descending Memphis Center
Fri 09:06:14 AM 34.2239 -91.2564 51° Northeast 428 493 36,900  Level Memphis Center
Fri 09:07:14 AM 34.2869 -91.1542 53° Northeast 428 493 36,900 50 Level Memphis Center
Fri 09:08:14 AM 34.3608 -91.0364 53° Northeast 428 493 37,000 50 Climbing Memphis Center
Fri 09:09:14 AM 34.4344 -90.9211 52° Northeast 433 498 37,000  Level Memphis Center
Fri 09:10:14 AM 34.5058 -90.8083 52° Northeast 433 498 37,000  Level Memphis Center
Fri 09:11:14 AM 34.5772 -90.6900 54° Northeast 428 493 37,000  Level Memphis Center
Fri 09:12:14 AM 34.6503 -90.5767 52° Northeast 428 493 37,000 -50 Level Memphis Center
Fri 09:13:14 AM 34.7278 -90.4481 54° Northeast 428 493 36,900 -50 Descending Memphis Center
Fri 09:14:14 AM 34.7967 -90.3369 53° Northeast 428 493 36,900  Level Memphis Center
Fri 09:15:14 AM 34.8675 -90.2231 53° Northeast 428 493 36,900 50 Level Memphis Center
Fri 09:16:14 AM 34.9425 -90.1114 51° Northeast 423 487 37,000 50 Climbing Memphis Center
Fri 09:17:14 AM 35.0153 -89.9944 53° Northeast 423 487 37,000  Level Memphis Center
Fri 09:18:14 AM 35.0772 -89.8878 55° Northeast 423 487 37,000  Level Memphis Center
Fri 09:19:14 AM 35.1436 -89.7653 56° Northeast 438 504 37,000  Level Memphis Center
Fri 09:20:14 AM 35.2097 -89.6431 56° Northeast 433 498 37,000  Level Memphis Center
Fri 09:21:14 AM 35.2758 -89.5253 55° Northeast 425 489 37,000  Level Memphis Center
Fri 09:22:14 AM 35.3497 -89.3897 56° Northeast 425 489 37,000  Level Memphis Center
Fri 09:23:14 AM 35.4197 -89.2667 55° Northeast 425 489 37,000  Level Memphis Center
Fri 09:24:14 AM 35.4875 -89.1508 54° Northeast 425 489 37,000  Level Memphis Center
Fri 09:25:14 AM 35.5531 -89.0275 57° Northeast 425 489 37,000 -50 Level Memphis Center
Fri 09:26:14 AM 35.6203 -88.9039 56° Northeast 425 489 36,900 -50 Descending Memphis Center
Fri 09:27:14 AM 35.6814 -88.7853 58° Northeast 420 483 36,900 50 Level Memphis Center
Fri 09:28:14 AM 35.7486 -88.6611 56° Northeast 420 483 37,000 50 Climbing Memphis Center
Fri 09:29:14 AM 35.8158 -88.5394 56° Northeast 420 483 37,000  Level Memphis Center
Fri 09:30:14 AM 35.8808 -88.4278 54° Northeast 425 489 37,000  Level Memphis Center
Fri 09:31:14 AM 35.9475 -88.3033 56° Northeast 431 496 37,000  Level Memphis Center
Fri 09:32:14 AM 36.0144 -88.1808 56° Northeast 431 496 37,000  Level Memphis Center
Fri 09:33:14 AM 36.0811 -88.0611 55° Northeast 426 490 37,000  Level Memphis Center
Fri 09:34:14 AM 36.1475 -87.9358 57° Northeast 431 496 37,000  Level Memphis Center
Fri 09:35:14 AM 36.2158 -87.8128 55° Northeast 436 502 37,000  Level Memphis Center
Fri 09:36:14 AM 36.2819 -87.6872 57° Northeast 436 502 37,000  Level Memphis Center
Fri 09:37:14 AM 36.3539 -87.5483 57° Northeast 436 502 37,000 -50 Level Memphis Center
Fri 09:38:14 AM 36.4219 -87.4247 56° Northeast 430 495 36,900  Descending Memphis Center
Fri 09:39:14 AM 36.4878 -87.2983 57° Northeast 437 503 37,000 50 Climbing Memphis Center
Fri 09:40:14 AM 36.5553 -87.1692 57° Northeast 437 503 37,000  Level Memphis Center
Fri 09:41:14 AM 36.6228 -87.0425 56° Northeast 442 509 37,000  Level Memphis Center
Fri 09:42:14 AM 36.6881 -86.9131 58° Northeast 447 514 37,000  Level Memphis Center
Fri 09:43:14 AM 36.7494 -86.7964 57° Northeast 447 514 37,000  Level Memphis Center
Fri 09:44:14 AM 36.8144 -86.6692 57° Northeast 442 509 37,000  Level Memphis Center
Fri 09:45:14 AM 36.8794 -86.5417 57° Northeast 442 509 37,000 -50 Level Memphis Center
Fri 09:46:14 AM 36.9422 -86.4142 58° Northeast 442 509 36,900  Descending Memphis Center
Fri 09:47:21 AM 37.0125 -86.2542 61° Northeast 438 504 37,000 47 Climbing Indianapolis Center
Fri 09:48:23 AM 37.0717 -86.1181 61° Northeast 440 506 37,000  Level Indianapolis Center
Fri 09:49:26 AM 37.1314 -85.9817 61° Northeast 441 507 37,000  Level Indianapolis Center
Fri 09:50:28 AM 37.1914 -85.8456 61° Northeast 442 509 37,000  Level Indianapolis Center
Fri 09:51:30 AM 37.2503 -85.7083 62° Northeast 443 510 37,000  Level Indianapolis Center
Fri 09:52:32 AM 37.3125 -85.5650 61° Northeast 440 506 37,000  Level Indianapolis Center
Fri 09:53:34 AM 37.3733 -85.4239 61° Northeast 441 507 37,000  Level Indianapolis Center
Fri 09:54:36 AM 37.4319 -85.2875 62° Northeast 441 507 37,000  Level Indianapolis Center
Fri 09:55:38 AM 37.4900 -85.1492 62° Northeast 446 513 37,000  Level Indianapolis Center
Fri 09:56:40 AM 37.5586 -84.9900 61° Northeast 441 507 37,000  Level Indianapolis Center
Fri 09:57:42 AM 37.6158 -84.8506 63° Northeast 445 512 37,000  Level Indianapolis Center
Fri 09:58:44 AM 37.6742 -84.7119 62° Northeast 445 512 37,000  Level Indianapolis Center
Fri 09:59:46 AM 37.7314 -84.5739 62° Northeast 442 509 37,000 -48 Level Indianapolis Center
Fri 10:00:48 AM 37.7900 -84.4353 62° Northeast 445 512 36,900  Descending Indianapolis Center
Fri 10:01:50 AM 37.8478 -84.2956 62° Northeast 447 514 37,000 48 Climbing Indianapolis Center
Fri 10:02:52 AM 37.9150 -84.1328 62° Northeast 447 514 37,000  Level Indianapolis Center
Fri 10:03:54 AM 37.9725 -83.9947 62° Northeast 442 509 37,000 -48 Level Indianapolis Center
Fri 10:04:56 AM 38.0294 -83.8542 63° Northeast 444 511 36,900  Descending Indianapolis Center
Fri 10:05:58 AM 38.0864 -83.7139 63° Northeast 445 512 37,000 48 Climbing Indianapolis Center
Fri 10:07:00 AM 38.1442 -83.5728 62° Northeast 447 514 37,000  Level Indianapolis Center
Fri 10:08:02 AM 38.2006 -83.4339 63° Northeast 442 509 37,000  Level Indianapolis Center
Fri 10:09:04 AM 38.2656 -83.2703 63° Northeast 442 509 37,000 -48 Level Indianapolis Center
Fri 10:10:06 AM 38.3211 -83.1303 63° Northeast 441 507 36,900  Descending Indianapolis Center
Fri 10:11:08 AM 38.3772 -82.9925 63° Northeast 439 505 37,000  Climbing Indianapolis Center
Fri 10:12:10 AM 38.4278 -82.8511 65° Northeast 438 504 36,900 -484 Descending Indianapolis Center
Fri 10:13:12 AM 38.4717 -82.7056 69° East 440 506 36,000 -1,210 Descending Indianapolis Center
Fri 10:14:14 AM 38.5169 -82.5572 69° East 446 513 34,400 -1,680 Descending Indianapolis Center
Fri 10:15:17 AM 38.5719 -82.3886 67° East 457 526 32,500 -1,776 Descending Indianapolis Center
Fri 10:16:19 AM 38.6206 -82.2397 67° East 455 524 30,700 -1,597 Descending Indianapolis Center
Fri 10:17:21 AM 38.6789 -82.1039 61° Northeast 440 506 29,200 -1,210 Descending Indianapolis Center
Fri 10:18:23 AM 38.7733 -82.0122 37° Northeast 426 490 28,200 -968 Descending Indianapolis Center
Fri 10:19:25 AM 38.8694 -81.9203 37° Northeast 426 490 27,200 -968 Descending Indianapolis Center
Fri 10:20:27 AM 38.9633 -81.8306 37° Northeast 419 482 26,200 -1,065 Descending Indianapolis Center
Fri 10:21:29 AM 39.0761 -81.7242 36° Northeast 415 478 25,000 -1,065 Descending Indianapolis Center
Fri 10:22:31 AM 39.1706 -81.6347 36° Northeast 416 479 24,000 -581 Descending Indianapolis Center
Fri 10:23:33 AM 39.2619 -81.5461 37° Northeast 412 474 23,800 -581 Descending Indianapolis Center
Fri 10:24:35 AM 39.3517 -81.4592 37° Northeast 405 466 22,800 -968 Descending Indianapolis Center
Fri 10:25:37 AM 39.4419 -81.3725 37° Northeast 402 463 21,800 -871 Descending Indianapolis Center
Fri 10:26:39 AM 39.5303 -81.2881 36° Northeast 396 456 21,000 -435 Descending Indianapolis Center
Fri 10:27:41 AM 39.6167 -81.2042 37° Northeast 389 448 20,900 -1,403 Descending Indianapolis Center
Fri 10:28:43 AM 39.7044 -81.1217 36° Northeast 388 447 18,100 -2,516 Descending Indianapolis Center
Fri 10:29:45 AM 39.8100 -81.0189 37° Northeast 392 451 15,700 -2,177 Descending Indianapolis Center
Fri 10:30:47 AM 39.8950 -80.9353 37° Northeast 383 441 13,600 -1,935 Descending Indianapolis Center
Fri 10:31:49 AM 39.9828 -80.8472 38° Northeast 373 429 11,700 -1,657 Descending Indianapolis Center
Fri 10:32:32 AM 40.0314 -80.8000 37° Northeast 365 420 10,700 -990 Descending Cleveland Center
Fri 10:33:32 AM 40.1006 -80.7106 45° Northeast 353 406 10,000 -350 Descending Cleveland Center
Fri 10:34:32 AM 40.1692 -80.6211 45° Northeast 343 395 10,000  Level Cleveland Center
Fri 10:35:32 AM 40.2381 -80.5342 44° Northeast 343 395 10,000 -200 Level Cleveland Center
Fri 10:36:32 AM 40.3028 -80.4497 45° Northeast 331 381 9,600 -900 Descending Cleveland Center
Fri 10:37:32 AM 40.3608 -80.3678 47° Northeast 316 364 8,200 -1,350 Descending Cleveland Center
Fri 10:38:32 AM 40.3731 -80.2642 81° East 283 326 6,900 -1,250 Descending Cleveland Center
Fri 10:39:32 AM 40.3833 -80.1578 83° East 282 325 5,700 -750 Descending Cleveland Center
Fri 10:40:32 AM 40.3933 -80.0625 82° East 275 316 5,400 -300 Descending Cleveland Center

Login

Don't have an account? Register now (free) for customized features, flight alerts, and more!